createdAt,value
2022-12-12T00:02:20.615Z,1.97
2022-12-12T00:05:23.220Z,1.89
2022-12-12T00:08:27.234Z,1.85
2022-12-12T00:11:29.904Z,1.93
2022-12-12T00:14:32.500Z,1.88
2022-12-12T00:17:35.095Z,1.82
2022-12-12T00:20:37.732Z,1.90
2022-12-12T00:23:41.945Z,2.01
2022-12-12T00:26:44.551Z,1.75
2022-12-12T00:29:51.924Z,1.78
2022-12-12T00:32:54.534Z,1.89
2022-12-12T00:35:57.121Z,1.85
2022-12-12T00:39:01.327Z,1.86
2022-12-12T00:42:03.990Z,1.86
2022-12-12T00:45:07.511Z,1.86
2022-12-12T00:48:10.322Z,1.86
2022-12-12T00:51:17.445Z,1.93
2022-12-12T00:54:21.412Z,1.91
2022-12-12T00:57:23.983Z,1.74
2022-12-12T01:00:26.701Z,1.84
2022-12-12T01:03:29.315Z,1.92
2022-12-12T01:06:32.405Z,2.03
2022-12-12T01:09:36.356Z,2.06
2022-12-12T01:12:38.952Z,2.03
2022-12-12T01:15:41.600Z,2.00
2022-12-12T01:18:44.537Z,1.94
2022-12-12T01:21:47.127Z,1.85
2022-12-12T01:24:51.055Z,1.94
2022-12-12T01:27:53.676Z,1.92
2022-12-12T01:30:56.463Z,1.96
2022-12-12T01:33:59.124Z,1.96
2022-12-12T01:37:01.705Z,1.98
2022-12-12T01:40:08.671Z,1.98
2022-12-12T01:43:12.964Z,2.05
2022-12-12T01:46:35.415Z,1.94
2022-12-12T01:49:38.206Z,1.95
2022-12-12T01:52:45.037Z,1.89
2022-12-12T01:55:50.563Z,2.03
2022-12-12T01:58:56.468Z,1.94
2022-12-12T02:01:59.143Z,1.80
2022-12-12T02:05:06.833Z,1.82
2022-12-12T02:08:12.868Z,1.75
2022-12-12T02:11:16.852Z,1.73
2022-12-12T02:14:23.217Z,1.83
2022-12-12T02:17:43.120Z,1.94
2022-12-12T02:21:05.881Z,1.77
2022-12-12T02:24:47.975Z,1.72
2022-12-12T02:28:17.187Z,1.83
2022-12-12T02:31:25.874Z,1.75
2022-12-12T02:34:35.521Z,1.65
2022-12-12T02:37:46.908Z,1.70
2022-12-12T02:40:58.819Z,1.69
2022-12-12T02:44:12.369Z,1.77
2022-12-12T02:47:21.829Z,1.78
2022-12-12T02:50:27.330Z,1.65
2022-12-12T02:53:30.057Z,1.53
2022-12-12T02:56:45.920Z,1.66
2022-12-12T02:59:53.377Z,1.42
2022-12-12T03:03:46.937Z,1.41
2022-12-12T03:07:18.821Z,1.45
2022-12-12T03:10:36.455Z,1.34
2022-12-12T03:13:46.785Z,1.36
2022-12-12T03:16:56.520Z,1.31
2022-12-12T03:20:07.715Z,1.22
2022-12-12T03:23:15.468Z,1.02
2022-12-12T03:26:22.284Z,1.19
2022-12-12T03:29:30.148Z,1.08
2022-12-12T03:32:39.501Z,0.95
2022-12-12T03:35:48.390Z,0.90
2022-12-12T03:38:57.230Z,0.97
2022-12-12T03:42:06.915Z,1.09
2022-12-12T03:45:15.347Z,0.97
2022-12-12T03:48:23.015Z,0.70
2022-12-12T03:51:30.099Z,0.71
2022-12-12T03:54:36.410Z,0.74
2022-12-12T03:57:44.692Z,0.77
2022-12-12T04:00:50.655Z,0.61
2022-12-12T04:04:01.035Z,0.78
2022-12-12T04:07:12.403Z,0.91
2022-12-12T04:10:32.385Z,0.69
2022-12-12T04:13:42.948Z,0.61
2022-12-12T04:16:47.352Z,0.60
2022-12-12T04:20:14.635Z,0.55
2022-12-12T04:23:38.191Z,0.55
2022-12-12T04:26:46.065Z,0.34
2022-12-12T04:29:54.707Z,0.30
2022-12-12T04:33:03.287Z,0.40
2022-12-12T04:36:09.561Z,0.48
2022-12-12T04:39:16.182Z,0.47
2022-12-12T04:42:23.752Z,0.51
2022-12-12T04:45:34.270Z,0.40
2022-12-12T04:48:43.757Z,0.31
2022-12-12T04:51:51.159Z,0.30
2022-12-12T04:55:02.987Z,0.28
2022-12-12T04:58:08.202Z,0.15
2022-12-12T05:01:16.900Z,-0.02
2022-12-12T05:04:25.051Z,-0.04
2022-12-12T05:07:39.527Z,-0.03
2022-12-12T05:10:45.928Z,-0.06
2022-12-12T05:13:49.843Z,-0.11
2022-12-12T05:16:56.258Z,0.11
2022-12-12T05:19:59.708Z,-0.10
2022-12-12T05:23:02.333Z,-0.15
2022-12-12T05:26:09.373Z,-0.09
2022-12-12T05:29:12.004Z,-0.03
2022-12-12T05:32:14.586Z,-0.07
2022-12-12T05:35:17.437Z,-0.09
2022-12-12T05:38:20.034Z,-0.16
2022-12-12T05:41:24.201Z,-0.18
2022-12-12T05:44:26.861Z,-0.12
2022-12-12T05:47:29.438Z,-0.06
2022-12-12T05:50:32.016Z,-0.23
2022-12-12T05:53:42.201Z,-0.13
2022-12-12T05:56:47.059Z,-0.30
2022-12-12T05:59:49.819Z,-0.22
2022-12-12T06:02:52.535Z,-0.18
2022-12-12T06:05:55.187Z,-0.21
2022-12-12T06:08:57.901Z,-0.01
2022-12-12T06:12:01.838Z,-0.27
2022-12-12T06:15:04.863Z,-0.25
2022-12-12T06:18:07.495Z,-0.22
2022-12-12T06:21:12.198Z,-0.21
2022-12-12T06:24:14.807Z,-0.19
2022-12-12T06:27:18.799Z,-0.18
2022-12-12T06:30:21.554Z,-0.38
2022-12-12T06:33:24.469Z,-0.40
2022-12-12T06:36:27.110Z,-0.26
2022-12-12T06:39:29.721Z,-0.17
2022-12-12T06:42:33.642Z,-0.06
2022-12-12T06:45:36.228Z,-0.38
2022-12-12T06:48:38.814Z,-0.27
2022-12-12T06:51:44.254Z,-0.25
2022-12-12T06:54:47.336Z,-0.24
2022-12-12T06:57:51.340Z,-0.17
2022-12-12T07:00:54.970Z,0.01
2022-12-12T07:03:58.185Z,-0.09
2022-12-12T07:07:00.793Z,-0.12
2022-12-12T07:10:03.380Z,-0.11
2022-12-12T07:13:07.450Z,-0.02
2022-12-12T07:16:10.137Z,-0.12
2022-12-12T07:19:12.817Z,-0.06
2022-12-12T07:22:15.396Z,-0.28
2022-12-12T07:25:18.148Z,-0.09
2022-12-12T07:28:22.157Z,-0.22
2022-12-12T07:31:26.419Z,-0.15
2022-12-12T07:34:30.127Z,-0.16
2022-12-12T07:37:32.753Z,-0.28
2022-12-12T07:40:35.352Z,-0.34
2022-12-12T07:43:43.797Z,-0.32
2022-12-12T07:46:47.381Z,-0.30
2022-12-12T07:49:49.967Z,-0.24
2022-12-12T07:52:52.763Z,-0.23
2022-12-12T07:55:56.389Z,-0.29
2022-12-12T07:59:00.399Z,-0.15
2022-12-12T08:02:03.050Z,-0.31
2022-12-12T08:05:06.504Z,-0.33
2022-12-12T08:08:09.321Z,-0.25
2022-12-12T08:11:13.726Z,-0.24
2022-12-12T08:14:18.324Z,-0.29
2022-12-12T08:17:20.919Z,-0.30
2022-12-12T08:20:23.816Z,-0.28
2022-12-12T08:23:26.380Z,-0.32
2022-12-12T08:26:30.109Z,-0.19
2022-12-12T08:29:34.056Z,-0.18
2022-12-12T08:32:36.957Z,-0.21
2022-12-12T08:35:39.547Z,-0.14
2022-12-12T08:38:42.316Z,-0.22
2022-12-12T08:41:48.964Z,-0.16
2022-12-12T08:44:52.951Z,-0.13
2022-12-12T08:47:55.531Z,-0.19
2022-12-12T08:50:58.619Z,-0.10
2022-12-12T08:54:01.531Z,-0.05
2022-12-12T08:57:04.445Z,-0.09
2022-12-12T09:00:10.607Z,-0.09
2022-12-12T09:03:13.455Z,0.02
2022-12-12T09:06:17.149Z,0.11
2022-12-12T09:09:19.769Z,0.15
2022-12-12T09:12:22.375Z,0.14
2022-12-12T09:15:26.297Z,0.21
2022-12-12T09:18:29.005Z,0.32
2022-12-12T09:21:31.567Z,0.33
2022-12-12T09:24:34.163Z,0.37
2022-12-12T09:27:37.025Z,0.45
2022-12-12T09:30:42.341Z,0.42
2022-12-12T09:33:45.020Z,0.52
2022-12-12T09:36:47.644Z,0.61
2022-12-12T09:39:52.311Z,0.74
2022-12-12T09:42:55.132Z,0.74
2022-12-12T09:46:01.059Z,0.77
2022-12-12T09:49:12.111Z,0.72
2022-12-12T09:52:16.749Z,0.80
2022-12-12T09:55:38.621Z,0.89
2022-12-12T09:58:52.506Z,0.92
2022-12-12T10:02:06.438Z,0.97
2022-12-12T10:05:20.539Z,0.96
2022-12-12T10:08:29.687Z,1.12
2022-12-12T10:11:54.793Z,1.24
2022-12-12T10:15:01.862Z,1.18
2022-12-12T10:18:13.443Z,1.24
2022-12-12T10:21:21.072Z,1.08
2022-12-12T10:24:31.525Z,1.30
2022-12-12T10:27:34.188Z,1.42
2022-12-12T10:30:44.824Z,1.57
2022-12-12T10:34:06.565Z,1.72
2022-12-12T10:37:22.877Z,1.91
2022-12-12T10:40:38.814Z,1.88
2022-12-12T10:43:47.118Z,2.04
2022-12-12T10:46:56.875Z,2.24
2022-12-12T10:50:14.440Z,2.04
2022-12-12T10:53:17.080Z,2.16
2022-12-12T10:56:22.138Z,2.20
2022-12-12T10:59:24.694Z,2.34
2022-12-12T11:02:31.398Z,2.71
2022-12-12T11:05:37.765Z,3.24
2022-12-12T11:08:52.425Z,3.14
2022-12-12T11:12:00.165Z,2.70
2022-12-12T11:15:07.478Z,2.53
2022-12-12T11:18:15.575Z,2.48
2022-12-12T11:21:21.458Z,1.81
2022-12-12T11:24:30.576Z,2.27
2022-12-12T11:27:35.485Z,2.02
2022-12-12T11:30:40.532Z,2.28
2022-12-12T11:33:49.768Z,2.03
2022-12-12T11:36:54.915Z,2.11
2022-12-12T11:39:58.385Z,2.17
2022-12-12T11:43:19.972Z,2.25
2022-12-12T11:46:25.939Z,2.25
2022-12-12T11:49:28.532Z,2.27
2022-12-12T11:52:34.045Z,2.21
2022-12-12T11:55:45.469Z,2.14
2022-12-12T11:58:56.318Z,2.10
2022-12-12T12:02:12.074Z,1.93
2022-12-12T12:05:26.130Z,1.99
2022-12-12T12:08:42.791Z,1.97
2022-12-12T12:11:55.713Z,2.07
2022-12-12T12:15:23.313Z,2.05
2022-12-12T12:18:49.146Z,2.09
2022-12-12T12:22:02.819Z,2.04
2022-12-12T12:25:24.412Z,1.95
2022-12-12T12:29:03.139Z,2.06
2022-12-12T12:32:17.840Z,2.07
2022-12-12T12:35:29.832Z,2.17
2022-12-12T12:38:49.564Z,2.33
2022-12-12T12:42:06.342Z,2.52
2022-12-12T12:45:19.215Z,2.75
2022-12-12T12:48:25.488Z,3.06
2022-12-12T12:51:34.761Z,3.52
2022-12-12T12:54:40.736Z,3.83
2022-12-12T12:57:48.020Z,3.78
2022-12-12T13:00:58.787Z,3.87
2022-12-12T13:04:06.209Z,3.74
2022-12-12T13:07:14.858Z,3.30
2022-12-12T13:10:22.349Z,2.95
2022-12-12T13:13:30.525Z,2.71
2022-12-12T13:16:34.277Z,2.59
2022-12-12T13:19:40.397Z,2.43
2022-12-12T13:22:54.914Z,2.41
2022-12-12T13:26:02.094Z,2.33
2022-12-12T13:29:31.596Z,2.40
2022-12-12T13:32:53.836Z,2.39
2022-12-12T13:36:05.840Z,2.40
2022-12-12T13:39:22.189Z,2.25
2022-12-12T13:42:24.802Z,2.30
2022-12-12T13:45:38.027Z,2.19
2022-12-12T13:48:47.042Z,2.17
2022-12-12T13:51:49.943Z,2.16
2022-12-12T13:55:12.067Z,2.10
2022-12-12T13:58:21.225Z,2.10
2022-12-12T14:01:34.324Z,2.06
2022-12-12T14:04:39.485Z,2.09
2022-12-12T14:07:49.698Z,2.00
2022-12-12T14:10:56.371Z,2.10
2022-12-12T14:14:08.506Z,2.03
2022-12-12T14:17:21.737Z,1.96
2022-12-12T14:20:28.208Z,1.84
2022-12-12T14:23:32.558Z,1.95
2022-12-12T14:26:49.358Z,1.83
2022-12-12T14:29:51.962Z,1.69
2022-12-12T14:33:06.938Z,1.64
2022-12-12T14:36:26.526Z,1.60
2022-12-12T14:40:02.566Z,1.59
2022-12-12T14:43:20.626Z,1.69
2022-12-12T14:46:25.371Z,1.45
2022-12-12T14:49:29.323Z,1.55
2022-12-12T14:52:32.012Z,1.53
2022-12-12T14:55:34.622Z,1.45
2022-12-12T14:58:41.073Z,1.31
2022-12-12T15:01:45.772Z,1.26
2022-12-12T15:04:55.172Z,1.26
2022-12-12T15:08:00.392Z,1.09
2022-12-12T15:11:03.013Z,1.13
2022-12-12T15:14:05.923Z,0.99
2022-12-12T15:17:14.502Z,1.04
2022-12-12T15:20:20.760Z,1.00
2022-12-12T15:23:24.278Z,0.78
2022-12-12T15:26:29.962Z,0.79
2022-12-12T15:29:33.761Z,0.66
2022-12-12T15:32:37.081Z,0.70
2022-12-12T15:35:41.429Z,0.91
2022-12-12T15:38:44.076Z,0.65
2022-12-12T15:41:46.997Z,0.68
2022-12-12T15:44:51.390Z,0.55
2022-12-12T15:47:55.183Z,0.47
2022-12-12T15:51:03.130Z,0.59
2022-12-12T15:54:06.006Z,0.51
2022-12-12T15:57:15.925Z,0.52
2022-12-12T16:00:32.034Z,0.39
2022-12-12T16:03:35.841Z,0.33
2022-12-12T16:06:42.239Z,0.34
2022-12-12T16:09:58.804Z,0.51
2022-12-12T16:13:03.822Z,0.45
2022-12-12T16:16:34.438Z,0.46
2022-12-12T16:19:42.608Z,0.35
2022-12-12T16:22:49.519Z,0.50
2022-12-12T16:25:52.154Z,0.46
2022-12-12T16:28:54.781Z,0.38
2022-12-12T16:31:58.373Z,0.32
2022-12-12T16:35:01.027Z,0.35
2022-12-12T16:38:13.794Z,0.26
2022-12-12T16:41:18.797Z,0.13
2022-12-12T16:44:21.372Z,0.07
2022-12-12T16:47:25.468Z,-0.03
2022-12-12T16:50:28.048Z,-0.07
2022-12-12T16:53:32.019Z,-0.07
2022-12-12T16:56:34.606Z,-0.21
2022-12-12T16:59:38.271Z,-0.19
2022-12-12T17:02:41.356Z,-0.03
2022-12-12T17:05:46.272Z,-0.13
2022-12-12T17:08:50.206Z,-0.20
2022-12-12T17:11:52.819Z,-0.33
2022-12-12T17:14:55.398Z,-0.28
2022-12-12T17:17:58.911Z,-0.27
2022-12-12T17:21:01.522Z,-0.38
2022-12-12T17:24:05.957Z,-0.40
2022-12-12T17:27:08.527Z,-0.44
2022-12-12T17:30:13.644Z,-0.52
2022-12-12T17:33:17.246Z,-0.31
2022-12-12T17:36:20.194Z,-0.44
2022-12-12T17:39:24.139Z,-0.52
2022-12-12T17:42:26.773Z,-0.40
2022-12-12T17:45:29.423Z,-0.43
2022-12-12T17:48:33.964Z,-0.42
2022-12-12T17:51:37.451Z,-0.70
2022-12-12T17:54:41.707Z,-0.77
2022-12-12T17:57:44.267Z,-0.75
2022-12-12T18:00:46.928Z,-0.67
2022-12-12T18:03:50.489Z,-0.67
2022-12-12T18:06:53.180Z,-0.66
2022-12-12T18:09:57.178Z,-0.66
2022-12-12T18:12:59.807Z,-0.78
2022-12-12T18:16:02.541Z,-0.89
2022-12-12T18:19:05.377Z,-0.75
2022-12-12T18:22:07.980Z,-0.73
2022-12-12T18:25:12.093Z,-0.88
2022-12-12T18:28:14.954Z,-0.94
2022-12-12T18:31:17.711Z,-0.83
2022-12-12T18:34:20.674Z,-0.87
2022-12-12T18:37:23.368Z,-1.00
2022-12-12T18:40:27.951Z,-0.93
2022-12-12T18:43:31.521Z,-0.91
2022-12-12T18:46:42.004Z,-0.97
2022-12-12T18:49:45.776Z,-0.87
2022-12-12T18:52:48.484Z,-0.93
2022-12-12T18:55:52.469Z,-0.98
2022-12-12T18:58:55.617Z,-0.99
2022-12-12T19:01:58.271Z,-1.06
2022-12-12T19:05:01.072Z,-1.09
2022-12-12T19:08:03.917Z,-1.15
2022-12-12T19:11:09.180Z,-1.24
2022-12-12T19:14:13.643Z,-1.42
2022-12-12T19:17:18.421Z,-1.35
2022-12-12T19:20:25.842Z,-1.17
2022-12-12T19:23:28.479Z,-1.30
2022-12-12T19:26:32.490Z,-1.36
2022-12-12T19:29:35.130Z,-1.43
2022-12-12T19:32:37.716Z,-1.32
2022-12-12T19:35:40.349Z,-1.37
2022-12-12T19:38:43.273Z,-1.48
2022-12-12T19:41:47.226Z,-1.31
2022-12-12T19:44:49.957Z,-1.48
2022-12-12T19:47:52.549Z,-1.58
2022-12-12T19:50:55.356Z,-1.52
2022-12-12T19:54:00.409Z,-1.36
2022-12-12T19:57:04.391Z,-1.49
2022-12-12T20:00:09.521Z,-1.44
2022-12-12T20:03:12.115Z,-1.35
2022-12-12T20:06:14.742Z,-1.43
2022-12-12T20:09:19.855Z,-1.63
2022-12-12T20:12:23.796Z,-1.77
2022-12-12T20:15:26.501Z,-1.62
2022-12-12T20:18:29.084Z,-1.65
2022-12-12T20:24:54.331Z,-1.68
2022-12-12T20:27:58.304Z,-1.83
2022-12-12T20:31:05.746Z,-1.88
2022-12-12T20:34:08.432Z,-1.71
2022-12-12T20:37:14.147Z,-1.69
2022-12-12T20:40:21.018Z,-1.75
2022-12-12T20:43:25.137Z,-1.79
2022-12-12T20:46:30.604Z,-1.81
2022-12-12T20:49:33.337Z,-1.76
2022-12-12T20:52:35.978Z,-1.78
2022-12-12T20:55:38.632Z,-1.78
2022-12-12T20:58:43.005Z,-1.75
2022-12-12T21:01:46.937Z,-1.85
2022-12-12T21:04:50.429Z,-2.02
2022-12-12T21:07:53.086Z,-2.01
2022-12-12T21:10:55.729Z,-1.94
2022-12-12T21:14:02.866Z,-1.92
2022-12-12T21:17:05.854Z,-1.92
2022-12-12T21:20:09.757Z,-2.00
2022-12-12T21:23:12.364Z,-2.05
2022-12-12T21:26:21.519Z,-1.80
2022-12-12T21:29:27.817Z,-1.92
2022-12-12T21:32:30.446Z,-1.90
2022-12-12T21:35:34.910Z,-2.17
2022-12-12T21:38:38.610Z,-2.10
2022-12-12T21:41:43.631Z,-2.08
2022-12-12T21:44:47.622Z,-2.02
2022-12-12T21:47:50.225Z,-2.10
2022-12-12T21:50:52.801Z,-2.26
2022-12-12T21:53:55.374Z,-2.12
2022-12-12T21:56:58.865Z,-2.13
2022-12-12T22:00:03.019Z,-2.20
2022-12-12T22:03:05.619Z,-2.21
2022-12-12T22:06:12.310Z,-2.19
2022-12-12T22:09:15.006Z,-1.95
2022-12-12T22:12:18.699Z,-2.03
2022-12-12T22:15:23.234Z,-2.26
2022-12-12T22:18:25.808Z,-2.11
2022-12-12T22:21:28.536Z,-2.19
2022-12-12T22:24:31.285Z,-2.16
2022-12-12T22:27:34.495Z,-2.09
2022-12-12T22:30:38.503Z,-2.15
2022-12-12T22:33:41.121Z,-2.19
2022-12-12T22:36:45.105Z,-2.24
2022-12-12T22:39:47.684Z,-2.17
2022-12-12T22:42:50.262Z,-2.32
2022-12-12T22:45:54.317Z,-2.29
2022-12-12T22:49:00.002Z,-2.23
2022-12-12T22:52:02.616Z,-2.04
2022-12-12T22:55:05.911Z,-2.36
2022-12-12T22:58:08.695Z,-2.25
2022-12-12T23:01:14.566Z,-2.18
2022-12-12T23:04:17.269Z,-2.06
2022-12-12T23:07:19.901Z,-2.13
2022-12-12T23:10:22.828Z,-2.26
2022-12-12T23:13:25.404Z,-2.28
2022-12-12T23:16:30.812Z,-2.21
2022-12-12T23:19:33.614Z,-2.07
2022-12-12T23:22:36.270Z,-2.22
2022-12-12T23:25:39.819Z,-2.27
2022-12-12T23:28:43.223Z,-2.42
2022-12-12T23:31:47.861Z,-2.28
2022-12-12T23:34:50.654Z,-2.06
2022-12-12T23:37:53.223Z,-2.00
2022-12-12T23:40:55.861Z,-2.00
2022-12-12T23:43:58.840Z,-1.86
2022-12-12T23:47:02.800Z,-1.76
2022-12-12T23:50:06.142Z,-1.83
2022-12-12T23:53:10.648Z,-1.73
2022-12-12T23:56:13.438Z,-1.71
2022-12-12T23:59:18.193Z,-1.75
